Time;durP1;ratioP1;P1;durP2;ratioP2;P2;SDS_P1;SDS_P2;PMS_P1;PMS_P2;Temp;Humidity;BMP_temperature;BMP_pressure;BME280_temperature;BME280_humidity;BME280_pressure;Samples;Min_cycle;Max_cycle;Signal;HPM_P1;HPM_P2
2022/03/15 00:00:46;;;;;;;6.33;5.53;;;;;;;;;;5064591;28;20727;-76
2022/03/15 00:03:12;;;;;;;7.07;5.63;;;;;;;;;;5063137;28;20205;-76
2022/03/15 00:05:38;;;;;;;10.43;6.30;;;;;;;;;;5065191;28;20240;-75
2022/03/15 00:08:05;;;;;;;8.27;6.27;;;;;;;;;;5066625;28;20180;-77
2022/03/15 00:10:32;;;;;;;9.20;6.33;;;;;;;;;;5069336;28;20196;-77
2022/03/15 00:12:58;;;;;;;8.90;5.97;;;;;;;;;;5062630;28;20189;-77
2022/03/15 00:15:25;;;;;;;9.80;7.00;;;;;;;;;;5068289;28;20213;-77
2022/03/15 00:17:51;;;;;;;12.40;6.53;;;;;;;;;;5064344;28;20272;-77
2022/03/15 00:20:23;;;;;;;10.43;6.50;;;;;;;;;;5069337;28;20204;-77
2022/03/15 00:22:50;;;;;;;8.23;6.60;;;;;;;;;;5073333;28;20217;-77
2022/03/15 00:25:16;;;;;;;9.03;6.40;;;;;;;;;;5071917;28;20185;-77
2022/03/15 00:27:53;;;;;;;9.23;6.60;;;;;;;;;;5067880;28;20314;-76
2022/03/15 00:30:21;;;;;;;9.43;7.00;;;;;;;;;;5050037;28;20228;-77
2022/03/15 00:32:49;;;;;;;9.63;6.83;;;;;;;;;;5047355;28;20188;-77
2022/03/15 00:35:18;;;;;;;9.93;6.70;;;;;;;;;;5064730;28;20185;-74
2022/03/15 00:37:48;;;;;;;11.20;6.57;;;;;;;;;;5066649;28;20188;-77
2022/03/15 00:40:15;;;;;;;9.33;6.90;;;;;;;;;;5067147;28;20195;-77
2022/03/15 00:42:44;;;;;;;11.33;7.60;;;;;;;;;;5069341;28;21044;-76
2022/03/15 00:45:14;;;;;;;9.97;7.50;;;;;;;;;;5067406;28;20177;-76
2022/03/15 00:47:41;;;;;;;12.50;8.30;;;;;;;;;;5068521;28;20268;-77
2022/03/15 00:50:07;;;;;;;12.80;8.37;;;;;;;;;;5067931;28;20185;-77
2022/03/15 00:52:33;;;;;;;10.57;7.40;;;;;;;;;;5062355;28;20177;-75
2022/03/15 00:55:00;;;;;;;10.03;7.30;;;;;;;;;;5062624;28;20231;-74
2022/03/15 00:57:28;;;;;;;10.83;7.60;;;;;;;;;;5063978;28;20185;-76
2022/03/15 00:59:55;;;;;;;14.03;7.80;;;;;;;;;;5060823;28;20185;-76
2022/03/15 01:02:21;;;;;;;10.50;7.73;;;;;;;;;;5064807;28;20347;-77
2022/03/15 01:04:47;;;;;;;11.00;8.03;;;;;;;;;;5066735;28;20177;-76
2022/03/15 01:07:13;;;;;;;11.13;7.93;;;;;;;;;;5064553;28;20185;-77
2022/03/15 01:09:40;;;;;;;12.60;8.83;;;;;;;;;;5067539;28;20235;-77
2022/03/15 01:12:06;;;;;;;11.03;7.90;;;;;;;;;;5064249;28;20212;-75
2022/03/15 01:14:33;;;;;;;14.30;8.10;;;;;;;;;;5065283;28;20195;-77
2022/03/15 01:17:02;;;;;;;14.23;8.30;;;;;;;;;;5065348;28;20231;-76
2022/03/15 01:19:28;;;;;;;10.33;7.77;;;;;;;;;;5062100;28;20255;-77
2022/03/15 01:21:54;;;;;;;8.83;6.97;;;;;;;;;;5071612;28;20228;-76
2022/03/15 01:24:21;;;;;;;10.80;7.17;;;;;;;;;;5043248;28;20215;-75
2022/03/15 01:26:47;;;;;;;9.83;7.57;;;;;;;;;;5065634;28;20181;-76
2022/03/15 01:29:13;;;;;;;11.17;7.57;;;;;;;;;;5064829;28;20222;-76
2022/03/15 01:31:39;;;;;;;10.53;7.07;;;;;;;;;;5068520;28;20279;-77
2022/03/15 01:34:06;;;;;;;8.23;6.83;;;;;;;;;;5070782;28;20556;-77
2022/03/15 01:36:34;;;;;;;12.83;7.10;;;;;;;;;;5065703;28;20182;-76
2022/03/15 01:39:00;;;;;;;9.87;6.87;;;;;;;;;;5063273;28;20192;-77
2022/03/15 01:41:35;;;;;;;9.90;6.90;;;;;;;;;;5060864;28;20212;-77
2022/03/15 01:44:03;;;;;;;11.27;6.73;;;;;;;;;;5082470;28;20691;-76
2022/03/15 01:46:29;;;;;;;10.50;6.77;;;;;;;;;;5046717;28;20232;-75
2022/03/15 01:48:57;;;;;;;9.37;6.10;;;;;;;;;;5071737;28;20172;-76
2022/03/15 01:51:23;;;;;;;9.63;7.00;;;;;;;;;;5075245;28;20220;-76
2022/03/15 01:53:50;;;;;;;7.47;5.57;;;;;;;;;;5063945;28;20186;-76
2022/03/15 01:56:16;;;;;;;8.63;6.20;;;;;;;;;;5064488;28;20797;-75
2022/03/15 01:58:42;;;;;;;10.70;6.17;;;;;;;;;;5046459;28;20186;-76
2022/03/15 02:01:08;;;;;;;9.27;6.20;;;;;;;;;;5066410;28;20217;-76
2022/03/15 02:03:35;;;;;;;7.07;5.60;;;;;;;;;;5067234;28;20213;-76
2022/03/15 02:06:01;;;;;;;7.90;5.80;;;;;;;;;;5068317;28;20186;-77
2022/03/15 02:08:28;;;;;;;7.83;6.00;;;;;;;;;;5069868;28;20186;-75
2022/03/15 02:10:54;;;;;;;7.43;5.90;;;;;;;;;;5065988;28;20255;-75
2022/03/15 02:13:20;;;;;;;8.90;5.57;;;;;;;;;;5068940;28;20204;-76
2022/03/15 02:15:47;;;;;;;9.27;6.47;;;;;;;;;;5067720;28;20276;-76
2022/03/15 02:18:13;;;;;;;8.67;6.00;;;;;;;;;;5065909;28;20250;-77
2022/03/15 02:20:40;;;;;;;8.63;6.33;;;;;;;;;;5066835;28;20613;-77
2022/03/15 02:23:06;;;;;;;10.03;6.30;;;;;;;;;;5070991;28;20201;-77
2022/03/15 02:25:32;;;;;;;10.07;6.40;;;;;;;;;;5074148;28;20207;-77
2022/03/15 02:27:58;;;;;;;12.53;6.63;;;;;;;;;;5068108;28;20212;-76
2022/03/15 02:30:25;;;;;;;8.67;6.23;;;;;;;;;;5075164;28;20213;-76
2022/03/15 02:32:52;;;;;;;12.97;6.70;;;;;;;;;;5069087;28;20185;-76
2022/03/15 02:35:20;;;;;;;12.87;7.00;;;;;;;;;;5073910;28;20185;-76
2022/03/15 02:37:47;;;;;;;10.57;6.40;;;;;;;;;;5067810;28;20264;-74
2022/03/15 02:40:13;;;;;;;8.37;6.43;;;;;;;;;;5073256;28;20211;-76
2022/03/15 02:42:41;;;;;;;8.30;6.13;;;;;;;;;;5066739;28;20327;-75
2022/03/15 02:45:07;;;;;;;10.50;6.63;;;;;;;;;;5068688;28;20177;-77
2022/03/15 02:47:33;;;;;;;9.73;5.90;;;;;;;;;;5070742;28;20242;-76
2022/03/15 02:49:59;;;;;;;8.17;6.20;;;;;;;;;;5067254;28;20181;-75
2022/03/15 02:52:28;;;;;;;8.73;6.27;;;;;;;;;;5067391;28;20181;-76
2022/03/15 02:54:55;;;;;;;9.23;6.73;;;;;;;;;;5066115;28;20272;-77
2022/03/15 02:57:23;;;;;;;8.77;6.33;;;;;;;;;;5061295;28;20178;-77
2022/03/15 02:59:49;;;;;;;8.90;6.17;;;;;;;;;;5067149;28;20718;-76
2022/03/15 03:02:15;;;;;;;8.40;6.30;;;;;;;;;;5065290;28;20201;-76
2022/03/15 03:04:42;;;;;;;9.77;6.23;;;;;;;;;;5069780;28;20236;-77
2022/03/15 03:07:09;;;;;;;8.33;6.10;;;;;;;;;;5049400;28;20185;-76
2022/03/15 03:09:35;;;;;;;9.60;6.27;;;;;;;;;;5070075;28;20189;-76
2022/03/15 03:12:02;;;;;;;8.23;6.40;;;;;;;;;;5064616;28;20763;-77
2022/03/15 03:14:29;;;;;;;8.10;6.47;;;;;;;;;;5065053;28;20196;-75
2022/03/15 03:16:55;;;;;;;10.90;6.37;;;;;;;;;;5064653;28;20182;-76
2022/03/15 03:19:21;;;;;;;8.77;5.87;;;;;;;;;;5075725;28;20212;-76
2022/03/15 03:21:49;;;;;;;11.37;7.20;;;;;;;;;;5069133;28;20274;-76
2022/03/15 03:24:21;;;;;;;9.77;6.40;;;;;;;;;;5071554;28;20659;-77
2022/03/15 03:26:47;;;;;;;11.43;7.20;;;;;;;;;;5063992;28;20173;-76
2022/03/15 03:29:15;;;;;;;11.37;6.97;;;;;;;;;;5074350;28;20177;-76
2022/03/15 03:31:42;;;;;;;13.40;7.63;;;;;;;;;;5072310;28;20196;-75
2022/03/15 03:34:09;;;;;;;10.17;7.03;;;;;;;;;;5067083;28;20182;-76
2022/03/15 03:36:36;;;;;;;11.23;6.63;;;;;;;;;;5076252;28;20176;-76
2022/03/15 03:39:03;;;;;;;11.37;6.67;;;;;;;;;;5069590;28;20655;-76
2022/03/15 03:41:30;;;;;;;12.97;7.67;;;;;;;;;;5069442;28;20209;-76
2022/03/15 03:43:57;;;;;;;10.50;6.80;;;;;;;;;;5069765;28;20200;-75
2022/03/15 03:46:24;;;;;;;10.60;7.17;;;;;;;;;;5068000;28;20169;-75
2022/03/15 03:48:50;;;;;;;11.80;7.23;;;;;;;;;;5069400;28;20189;-76
2022/03/15 03:51:17;;;;;;;10.20;7.20;;;;;;;;;;5057163;28;20255;-76
2022/03/15 03:53:43;;;;;;;8.90;7.00;;;;;;;;;;5064039;28;20272;-76
2022/03/15 03:56:10;;;;;;;10.33;6.83;;;;;;;;;;5066450;28;20238;-76
2022/03/15 03:58:36;;;;;;;12.30;8.47;;;;;;;;;;5072138;28;20267;-76
2022/03/15 04:01:03;;;;;;;9.90;6.97;;;;;;;;;;5066916;28;20304;-74
2022/03/15 04:03:31;;;;;;;9.90;7.10;;;;;;;;;;5068638;28;20208;-76
2022/03/15 04:06:06;;;;;;;11.13;7.87;;;;;;;;;;5063726;28;20272;-76
2022/03/15 04:08:32;;;;;;;10.03;7.10;;;;;;;;;;5060029;28;20185;-76
2022/03/15 04:11:03;;;;;;;9.70;6.80;;;;;;;;;;5066464;28;20225;-76
2022/03/15 04:13:30;;;;;;;9.07;7.23;;;;;;;;;;5068128;28;20215;-77
2022/03/15 04:15:57;;;;;;;13.20;7.83;;;;;;;;;;5065555;28;20295;-74
2022/03/15 04:18:23;;;;;;;13.30;7.67;;;;;;;;;;5068175;28;20587;-76
2022/03/15 04:20:50;;;;;;;12.97;7.27;;;;;;;;;;5061724;28;20212;-75
2022/03/15 04:23:16;;;;;;;10.13;7.20;;;;;;;;;;5069172;28;20558;-77
2022/03/15 04:25:42;;;;;;;9.30;6.90;;;;;;;;;;5061012;28;20227;-77
2022/03/15 04:28:09;;;;;;;10.47;8.00;;;;;;;;;;5066571;28;21068;-75
2022/03/15 04:30:35;;;;;;;11.00;7.90;;;;;;;;;;5064483;28;20284;-76
2022/03/15 04:33:01;;;;;;;9.93;7.60;;;;;;;;;;5066282;28;20276;-76
2022/03/15 04:35:29;;;;;;;11.80;7.90;;;;;;;;;;5068498;28;20555;-77
2022/03/15 04:37:56;;;;;;;10.60;7.57;;;;;;;;;;5066974;28;20211;-75
2022/03/15 04:40:22;;;;;;;11.53;8.13;;;;;;;;;;5066111;28;20303;-76
2022/03/15 04:42:48;;;;;;;11.53;7.63;;;;;;;;;;5064455;28;20209;-76
2022/03/15 04:45:15;;;;;;;10.30;7.33;;;;;;;;;;5064261;28;20192;-76
2022/03/15 04:47:41;;;;;;;11.77;7.33;;;;;;;;;;5066757;28;20633;-77
2022/03/15 04:50:09;;;;;;;10.43;7.63;;;;;;;;;;5069104;28;20179;-77
2022/03/15 04:52:35;;;;;;;11.03;7.73;;;;;;;;;;5065962;28;20582;-76
2022/03/15 04:55:02;;;;;;;10.57;7.93;;;;;;;;;;5066814;28;20173;-76
2022/03/15 04:57:28;;;;;;;13.77;8.40;;;;;;;;;;5060677;28;20243;-76
2022/03/15 04:59:54;;;;;;;10.97;7.60;;;;;;;;;;5066083;28;20197;-76
2022/03/15 05:02:23;;;;;;;12.07;7.80;;;;;;;;;;5065145;28;20204;-76
2022/03/15 05:04:49;;;;;;;9.23;7.47;;;;;;;;;;5066398;28;20216;-76
2022/03/15 05:07:15;;;;;;;10.50;7.90;;;;;;;;;;5066683;28;20565;-76
2022/03/15 05:12:28;;;;;;;12.43;7.73;;;;;;;;;;5065982;28;20600;-77
2022/03/15 05:14:55;;;;;;;13.07;7.70;;;;;;;;;;5065856;28;20177;-76
2022/03/15 05:17:21;;;;;;;12.83;8.10;;;;;;;;;;5068288;28;20192;-76
2022/03/15 05:19:47;;;;;;;11.63;8.20;;;;;;;;;;5065763;28;20238;-76
2022/03/15 05:22:13;;;;;;;11.93;7.73;;;;;;;;;;5069957;28;20216;-76
2022/03/15 05:24:40;;;;;;;12.73;7.70;;;;;;;;;;5066978;28;20209;-76
2022/03/15 05:27:07;;;;;;;10.73;6.73;;;;;;;;;;5068884;28;20790;-76
2022/03/15 05:29:33;;;;;;;13.33;7.80;;;;;;;;;;5070464;28;20173;-75
2022/03/15 05:31:59;;;;;;;10.80;7.37;;;;;;;;;;5069109;28;20239;-76
2022/03/15 05:34:25;;;;;;;11.03;7.40;;;;;;;;;;5072242;28;20679;-76
2022/03/15 05:36:52;;;;;;;8.90;7.00;;;;;;;;;;5069634;28;20193;-75
2022/03/15 05:39:18;;;;;;;9.80;6.93;;;;;;;;;;5069934;28;20617;-76
2022/03/15 05:41:44;;;;;;;10.83;7.13;;;;;;;;;;5066553;28;20215;-76
2022/03/15 05:44:10;;;;;;;12.13;7.57;;;;;;;;;;5066255;28;20569;-76
2022/03/15 05:46:36;;;;;;;15.03;8.43;;;;;;;;;;5070846;28;20177;-74
2022/03/15 05:49:03;;;;;;;20.23;9.43;;;;;;;;;;5067440;28;20260;-76
2022/03/15 05:51:29;;;;;;;17.90;9.90;;;;;;;;;;5067963;28;20577;-76
2022/03/15 05:53:55;;;;;;;18.07;10.30;;;;;;;;;;5070227;28;20189;-76
2022/03/15 05:56:22;;;;;;;17.60;10.50;;;;;;;;;;5071934;28;20198;-76
2022/03/15 05:58:48;;;;;;;15.37;10.03;;;;;;;;;;5070023;28;21005;-76
2022/03/15 06:01:16;;;;;;;19.23;10.20;;;;;;;;;;5063105;28;20213;-76
2022/03/15 06:03:42;;;;;;;15.70;9.40;;;;;;;;;;5064893;28;20598;-76
2022/03/15 06:06:08;;;;;;;17.43;9.60;;;;;;;;;;5065478;28;20185;-76
2022/03/15 06:08:35;;;;;;;15.30;8.60;;;;;;;;;;5074823;28;20181;-76
2022/03/15 06:11:02;;;;;;;16.20;9.07;;;;;;;;;;5067923;28;20213;-77
2022/03/15 06:13:29;;;;;;;13.40;8.77;;;;;;;;;;5066007;28;20236;-76
2022/03/15 06:15:55;;;;;;;15.63;8.93;;;;;;;;;;5063538;28;20649;-77
2022/03/15 06:18:21;;;;;;;14.13;9.00;;;;;;;;;;5076035;28;20181;-76
2022/03/15 06:20:47;;;;;;;15.53;9.20;;;;;;;;;;5073449;28;20201;-76
2022/03/15 06:23:17;;;;;;;14.33;8.50;;;;;;;;;;5070987;28;22096;-77
2022/03/15 06:25:43;;;;;;;13.43;9.40;;;;;;;;;;5046993;28;20189;-76
2022/03/15 06:28:09;;;;;;;12.83;8.77;;;;;;;;;;5068027;28;20185;-76
2022/03/15 06:30:36;;;;;;;13.10;9.17;;;;;;;;;;5067897;28;20244;-76
2022/03/15 06:33:03;;;;;;;14.80;9.37;;;;;;;;;;5068971;28;20276;-77
2022/03/15 06:35:29;;;;;;;13.10;9.37;;;;;;;;;;5066980;28;20194;-77
2022/03/15 06:37:56;;;;;;;13.77;8.13;;;;;;;;;;5067370;28;20567;-77
2022/03/15 06:40:25;;;;;;;10.97;8.30;;;;;;;;;;5070705;28;20205;-77
2022/03/15 06:42:52;;;;;;;11.30;7.93;;;;;;;;;;5071713;28;20209;-79
2022/03/15 06:45:18;;;;;;;11.27;7.90;;;;;;;;;;5068405;28;20177;-76
2022/03/15 06:47:44;;;;;;;12.37;7.80;;;;;;;;;;5069867;28;20250;-79
2022/03/15 06:50:13;;;;;;;10.77;7.43;;;;;;;;;;5071831;28;20174;-77
2022/03/15 06:52:41;;;;;;;12.97;7.70;;;;;;;;;;5050024;28;20193;-76
2022/03/15 06:55:07;;;;;;;11.27;7.67;;;;;;;;;;5071066;28;20208;-76
2022/03/15 06:57:34;;;;;;;11.10;7.70;;;;;;;;;;5070590;28;20247;-76
2022/03/15 07:00:01;;;;;;;11.93;8.13;;;;;;;;;;5068638;28;20189;-79
2022/03/15 07:02:27;;;;;;;10.47;6.93;;;;;;;;;;5088455;28;20174;-79
2022/03/15 07:04:54;;;;;;;11.03;7.77;;;;;;;;;;5074203;28;20220;-80
2022/03/15 07:07:20;;;;;;;12.27;7.30;;;;;;;;;;5072148;28;20264;-79
2022/03/15 07:09:46;;;;;;;11.43;7.37;;;;;;;;;;5078052;28;20180;-79
2022/03/15 07:12:12;;;;;;;8.33;6.93;;;;;;;;;;5072216;28;20572;-78
2022/03/15 07:14:38;;;;;;;9.47;7.17;;;;;;;;;;5075805;28;20204;-79
2022/03/15 07:17:05;;;;;;;11.00;7.50;;;;;;;;;;5074198;28;20189;-77
2022/03/15 07:19:31;;;;;;;10.30;7.53;;;;;;;;;;5073215;28;20536;-78
2022/03/15 07:21:57;;;;;;;12.20;7.20;;;;;;;;;;5072266;28;20201;-77
2022/03/15 07:24:23;;;;;;;11.20;7.13;;;;;;;;;;5070295;28;20222;-78
2022/03/15 07:26:50;;;;;;;11.00;6.70;;;;;;;;;;5070272;28;20280;-78
2022/03/15 07:29:16;;;;;;;11.50;7.37;;;;;;;;;;5071736;28;20184;-79
2022/03/15 07:31:43;;;;;;;10.40;6.73;;;;;;;;;;5065941;28;20590;-79
2022/03/15 07:34:09;;;;;;;15.77;10.17;;;;;;;;;;5040456;28;20192;-78
2022/03/15 07:36:35;;;;;;;13.13;7.47;;;;;;;;;;5068819;28;20181;-79
2022/03/15 07:39:03;;;;;;;9.53;6.80;;;;;;;;;;5062676;28;20196;-78
2022/03/15 07:41:32;;;;;;;10.87;7.40;;;;;;;;;;5065884;28;20219;-78
2022/03/15 07:43:59;;;;;;;9.57;6.93;;;;;;;;;;5066998;28;20596;-79
2022/03/15 07:46:25;;;;;;;12.33;7.70;;;;;;;;;;5069947;28;20181;-79
2022/03/15 07:48:51;;;;;;;11.53;7.30;;;;;;;;;;5032793;28;20182;-79
2022/03/15 07:51:17;;;;;;;8.73;7.30;;;;;;;;;;5070210;28;20208;-79
2022/03/15 07:53:44;;;;;;;11.83;7.13;;;;;;;;;;5065762;28;20193;-79
2022/03/15 07:56:10;;;;;;;9.33;7.17;;;;;;;;;;5070202;28;20186;-77
2022/03/15 07:58:37;;;;;;;12.20;7.90;;;;;;;;;;5069734;28;20212;-78
2022/03/15 08:01:04;;;;;;;11.43;7.37;;;;;;;;;;5053640;28;20654;-81
2022/03/15 08:03:30;;;;;;;9.47;6.90;;;;;;;;;;5071821;28;20708;-80
2022/03/15 08:05:57;;;;;;;13.17;7.73;;;;;;;;;;5071061;28;20216;-80
2022/03/15 08:08:23;;;;;;;9.50;7.00;;;;;;;;;;5058661;28;20587;-81
2022/03/15 08:10:49;;;;;;;11.13;7.17;;;;;;;;;;5062287;28;20201;-80
2022/03/15 08:13:16;;;;;;;13.90;7.77;;;;;;;;;;5063550;28;20223;-81
2022/03/15 08:15:42;;;;;;;14.53;7.20;;;;;;;;;;5065534;28;20648;-82
2022/03/15 08:18:08;;;;;;;15.00;7.50;;;;;;;;;;5038155;28;20235;-84
2022/03/15 08:20:39;;;;;;;10.00;7.47;;;;;;;;;;5050916;28;20204;-83
2022/03/15 08:23:06;;;;;;;25.17;7.50;;;;;;;;;;5052789;28;20211;-83
2022/03/15 08:25:33;;;;;;;12.77;7.33;;;;;;;;;;5063366;28;20204;-81
2022/03/15 08:28:00;;;;;;;10.37;6.90;;;;;;;;;;5071261;28;20192;-81
2022/03/15 08:30:27;;;;;;;9.53;6.90;;;;;;;;;;5077450;28;20189;-84
2022/03/15 08:32:53;;;;;;;9.13;7.13;;;;;;;;;;5062388;28;20223;-80
2022/03/15 08:35:21;;;;;;;8.07;6.77;;;;;;;;;;5064219;28;20798;-83
2022/03/15 08:37:50;;;;;;;11.80;7.50;;;;;;;;;;5059435;28;20238;-81
2022/03/15 08:40:17;;;;;;;14.27;7.83;;;;;;;;;;5058256;28;20211;-86
2022/03/15 08:42:44;;;;;;;13.87;8.40;;;;;;;;;;5074552;28;20177;-81
2022/03/15 08:45:11;;;;;;;12.70;8.47;;;;;;;;;;5053537;28;20178;-85
2022/03/15 08:47:37;;;;;;;11.20;8.00;;;;;;;;;;5073185;28;20180;-84
2022/03/15 08:50:05;;;;;;;15.87;8.37;;;;;;;;;;5075767;28;20296;-79
2022/03/15 08:52:31;;;;;;;11.63;7.97;;;;;;;;;;5074298;28;20181;-83
2022/03/15 08:54:58;;;;;;;12.70;8.47;;;;;;;;;;5084225;28;20184;-82
2022/03/15 08:57:24;;;;;;;11.00;8.17;;;;;;;;;;5088638;28;20268;-82
2022/03/15 08:59:50;;;;;;;12.80;8.10;;;;;;;;;;5081959;28;20220;-81
2022/03/15 09:02:17;;;;;;;11.47;7.57;;;;;;;;;;5046146;28;20213;-82
2022/03/15 09:04:44;;;;;;;11.97;8.80;;;;;;;;;;5079414;28;20209;-83
2022/03/15 09:07:10;;;;;;;12.27;9.00;;;;;;;;;;5084693;28;20189;-83
2022/03/15 09:09:36;;;;;;;11.97;9.10;;;;;;;;;;5094410;28;20242;-83
2022/03/15 09:12:03;;;;;;;12.20;8.70;;;;;;;;;;5069612;28;20205;-80
2022/03/15 09:14:30;;;;;;;15.03;9.50;;;;;;;;;;5068992;28;20189;-80
2022/03/15 09:16:57;;;;;;;12.97;8.50;;;;;;;;;;5081365;28;20669;-81
2022/03/15 09:19:23;;;;;;;17.07;8.80;;;;;;;;;;5082673;28;20196;-80
2022/03/15 09:21:49;;;;;;;14.17;8.90;;;;;;;;;;5080337;28;20223;-80
2022/03/15 09:24:15;;;;;;;12.20;8.80;;;;;;;;;;5082724;28;20205;-80
2022/03/15 09:26:42;;;;;;;14.13;8.47;;;;;;;;;;5085128;28;20181;-81
2022/03/15 09:29:12;;;;;;;15.10;8.70;;;;;;;;;;5067050;28;20726;-81
2022/03/15 09:31:39;;;;;;;12.43;8.77;;;;;;;;;;5082437;28;20197;-81
2022/03/15 09:34:05;;;;;;;13.70;8.50;;;;;;;;;;5082887;28;20185;-81
2022/03/15 09:36:31;;;;;;;12.93;9.30;;;;;;;;;;5061806;28;20189;-81
2022/03/15 09:38:58;;;;;;;14.27;9.00;;;;;;;;;;5067056;28;20197;-81
2022/03/15 09:41:26;;;;;;;12.87;9.30;;;;;;;;;;5082527;28;20200;-81
2022/03/15 09:43:54;;;;;;;15.07;10.17;;;;;;;;;;5081141;28;20232;-81
2022/03/15 09:46:21;;;;;;;17.63;10.10;;;;;;;;;;5080333;28;20192;-81
2022/03/15 09:48:51;;;;;;;12.70;10.00;;;;;;;;;;5063374;28;20191;-81
2022/03/15 09:51:18;;;;;;;14.17;10.27;;;;;;;;;;5074618;28;20259;-81
2022/03/15 09:53:46;;;;;;;17.47;10.40;;;;;;;;;;5080348;28;20189;-81
2022/03/15 09:56:15;;;;;;;15.97;11.23;;;;;;;;;;5075718;28;20213;-80
2022/03/15 09:58:41;;;;;;;14.70;11.07;;;;;;;;;;5067761;28;20185;-81
2022/03/15 10:01:13;;;;;;;19.33;11.90;;;;;;;;;;5056935;28;20217;-81
2022/03/15 10:03:39;;;;;;;15.13;11.50;;;;;;;;;;5038306;28;20206;-81
2022/03/15 10:06:06;;;;;;;17.50;12.53;;;;;;;;;;5062584;28;20722;-82
2022/03/15 10:08:34;;;;;;;21.17;11.67;;;;;;;;;;5053706;28;20223;-81
2022/03/15 10:11:01;;;;;;;16.30;11.30;;;;;;;;;;5057962;28;20294;-81
2022/03/15 10:13:27;;;;;;;16.90;11.50;;;;;;;;;;5060866;28;20194;-82
2022/03/15 10:15:59;;;;;;;16.03;10.97;;;;;;;;;;5055756;28;20641;-81
2022/03/15 10:18:26;;;;;;;16.67;10.03;;;;;;;;;;5058186;28;20185;-81
2022/03/15 10:20:53;;;;;;;16.47;11.07;;;;;;;;;;5074496;28;20213;-81
2022/03/15 10:23:24;;;;;;;14.03;10.07;;;;;;;;;;5074760;28;20200;-82
2022/03/15 10:25:52;;;;;;;14.27;9.50;;;;;;;;;;5071162;28;20173;-82
2022/03/15 10:28:18;;;;;;;15.47;10.03;;;;;;;;;;5061117;28;20186;-81
2022/03/15 10:30:46;;;;;;;14.17;9.47;;;;;;;;;;5071396;28;20232;-82
2022/03/15 10:33:13;;;;;;;13.67;9.10;;;;;;;;;;5057033;28;20185;-81
2022/03/15 10:35:40;;;;;;;14.07;9.43;;;;;;;;;;5075867;28;20185;-81
2022/03/15 10:38:07;;;;;;;12.90;9.50;;;;;;;;;;5075160;28;20192;-81
2022/03/15 10:40:35;;;;;;;14.50;10.27;;;;;;;;;;5055135;28;20625;-81
2022/03/15 10:43:06;;;;;;;15.30;10.00;;;;;;;;;;5053879;28;20205;-81
2022/03/15 10:45:32;;;;;;;13.57;9.93;;;;;;;;;;5076095;28;20181;-81
2022/03/15 10:47:59;;;;;;;14.67;10.17;;;;;;;;;;5067359;28;20967;-82
2022/03/15 10:50:25;;;;;;;13.40;11.00;;;;;;;;;;5048699;28;20208;-81
2022/03/15 10:52:53;;;;;;;17.00;12.33;;;;;;;;;;5035438;28;20208;-82
2022/03/15 10:55:19;;;;;;;17.03;11.07;;;;;;;;;;5068790;28;20174;-82
2022/03/15 10:57:51;;;;;;;14.13;10.93;;;;;;;;;;5060911;28;20181;-82
2022/03/15 11:00:20;;;;;;;14.87;11.00;;;;;;;;;;5051695;28;20208;-81
2022/03/15 11:02:47;;;;;;;18.27;12.43;;;;;;;;;;5065718;28;20649;-81
2022/03/15 11:05:14;;;;;;;20.27;16.17;;;;;;;;;;5067144;28;20184;-81
2022/03/15 11:07:40;;;;;;;15.80;11.37;;;;;;;;;;5038517;28;20185;-81
2022/03/15 11:10:10;;;;;;;14.47;11.13;;;;;;;;;;5073537;28;20192;-81
2022/03/15 11:12:37;;;;;;;13.53;10.00;;;;;;;;;;5073188;28;20908;-81
2022/03/15 11:15:04;;;;;;;15.23;9.80;;;;;;;;;;5070712;28;20181;-81
2022/03/15 11:17:35;;;;;;;20.23;12.20;;;;;;;;;;5070974;28;20192;-81
2022/03/15 11:20:02;;;;;;;16.40;11.50;;;;;;;;;;5054467;28;20189;-81
2022/03/15 11:22:34;;;;;;;16.27;11.53;;;;;;;;;;5072195;28;20602;-80
2022/03/15 11:25:08;;;;;;;18.70;11.70;;;;;;;;;;5069136;28;20214;-81
2022/03/15 11:27:36;;;;;;;17.73;12.33;;;;;;;;;;5072808;28;20231;-81
2022/03/15 11:30:03;;;;;;;17.30;11.57;;;;;;;;;;5060197;28;20189;-81
2022/03/15 11:32:34;;;;;;;16.53;12.03;;;;;;;;;;5072064;28;20200;-81
2022/03/15 11:35:00;;;;;;;18.03;11.87;;;;;;;;;;5068399;28;20213;-81
2022/03/15 11:37:26;;;;;;;15.97;12.27;;;;;;;;;;5050135;28;20185;-78
2022/03/15 11:39:53;;;;;;;15.87;12.00;;;;;;;;;;5073684;28;20597;-77
2022/03/15 11:42:19;;;;;;;17.67;11.93;;;;;;;;;;5071581;28;20220;-78
2022/03/15 11:44:45;;;;;;;16.63;11.50;;;;;;;;;;5071051;28;20258;-78
2022/03/15 11:47:30;;;;;;;14.67;10.53;;;;;;;;;;5071033;28;20185;-78
2022/03/15 11:49:59;;;;;;;15.47;11.83;;;;;;;;;;5065852;28;20227;-78
2022/03/15 11:52:55;;;;;;;16.47;12.60;;;;;;;;;;5072642;28;20185;-78
2022/03/15 11:55:26;;;;;;;16.63;13.30;;;;;;;;;;5080495;28;20346;-78
2022/03/15 11:57:54;;;;;;;19.50;14.67;;;;;;;;;;5086584;28;20180;-78
2022/03/15 12:00:30;;;;;;;18.30;14.30;;;;;;;;;;5074422;28;20271;-79
2022/03/15 12:03:02;;;;;;;19.60;14.20;;;;;;;;;;5056810;28;20189;-79
2022/03/15 12:05:30;;;;;;;17.87;13.50;;;;;;;;;;5066994;28;20189;-78
2022/03/15 12:08:12;;;;;;;18.83;12.77;;;;;;;;;;5071356;28;20178;-79
2022/03/15 12:10:41;;;;;;;17.83;13.93;;;;;;;;;;5054518;28;20396;-78
2022/03/15 12:13:09;;;;;;;18.00;13.07;;;;;;;;;;5064599;28;20185;-78
2022/03/15 12:15:38;;;;;;;18.40;12.37;;;;;;;;;;5068422;28;20180;-79
2022/03/15 12:18:14;;;;;;;18.27;12.93;;;;;;;;;;5073310;28;20181;-78
2022/03/15 12:20:43;;;;;;;20.00;13.57;;;;;;;;;;5066355;28;20250;-85
2022/03/15 12:23:22;;;;;;;19.33;13.37;;;;;;;;;;5076197;28;20209;-79
2022/03/15 12:25:53;;;;;;;16.10;12.63;;;;;;;;;;5070863;28;20191;-78
2022/03/15 12:28:26;;;;;;;18.23;13.37;;;;;;;;;;5067989;28;20188;-78
2022/03/15 12:30:53;;;;;;;18.27;13.80;;;;;;;;;;5069779;28;20197;-79
2022/03/15 12:33:26;;;;;;;15.67;13.17;;;;;;;;;;5070961;28;20173;-77
2022/03/15 12:36:07;;;;;;;17.83;14.97;;;;;;;;;;5069469;28;20185;-78
2022/03/15 12:38:34;;;;;;;18.23;14.97;;;;;;;;;;5059431;28;20239;-78
2022/03/15 12:41:01;;;;;;;22.73;16.63;;;;;;;;;;5063464;28;20201;-78
2022/03/15 12:43:28;;;;;;;21.33;14.93;;;;;;;;;;5082581;28;20259;-78
2022/03/15 12:45:54;;;;;;;22.40;14.50;;;;;;;;;;5063812;28;20951;-78
2022/03/15 12:48:51;;;;;;;24.97;14.97;;;;;;;;;;5071634;28;20273;-78
2022/03/15 12:51:18;;;;;;;25.03;15.13;;;;;;;;;;5056283;28;20790;-78
2022/03/15 12:53:48;;;;;;;18.67;13.70;;;;;;;;;;5069169;28;20205;-78
2022/03/15 12:56:15;;;;;;;18.87;14.10;;;;;;;;;;5071443;28;20193;-78
2022/03/15 12:58:42;;;;;;;21.47;14.70;;;;;;;;;;5055692;28;20196;-79
2022/03/15 13:01:08;;;;;;;17.30;12.70;;;;;;;;;;5075571;28;20557;-79
2022/03/15 13:03:38;;;;;;;19.97;13.30;;;;;;;;;;5080044;28;20207;-77
2022/03/15 13:06:04;;;;;;;18.93;12.97;;;;;;;;;;5079286;28;20187;-79
2022/03/15 13:08:32;;;;;;;19.10;14.17;;;;;;;;;;5079085;28;20185;-79
2022/03/15 13:11:05;;;;;;;18.57;13.33;;;;;;;;;;5070820;28;20245;-78
2022/03/15 13:13:31;;;;;;;19.80;14.17;;;;;;;;;;5070255;28;20557;-80
2022/03/15 13:16:01;;;;;;;18.63;12.53;;;;;;;;;;5068614;28;20189;-84
2022/03/15 13:18:28;;;;;;;19.03;14.03;;;;;;;;;;5041301;28;20646;-75
2022/03/15 13:21:01;;;;;;;26.07;17.23;;;;;;;;;;5083250;28;20205;-74
2022/03/15 13:23:28;;;;;;;20.57;16.07;;;;;;;;;;5064569;28;20213;-81
2022/03/15 13:25:59;;;;;;;19.03;13.60;;;;;;;;;;5045417;28;20181;-80
2022/03/15 13:28:27;;;;;;;19.50;14.17;;;;;;;;;;5072858;28;20184;-80
2022/03/15 13:31:05;;;;;;;21.20;16.53;;;;;;;;;;5072360;28;20205;-83
2022/03/15 13:33:32;;;;;;;20.63;16.60;;;;;;;;;;5066454;28;20227;-82
2022/03/15 13:36:14;;;;;;;22.47;15.47;;;;;;;;;;5080787;28;20181;-83
2022/03/15 13:38:45;;;;;;;20.20;15.63;;;;;;;;;;5063383;28;20177;-83
2022/03/15 13:41:13;;;;;;;20.80;16.20;;;;;;;;;;5079274;28;20205;-81
2022/03/15 13:43:43;;;;;;;21.23;16.47;;;;;;;;;;5084377;28;20201;-81
2022/03/15 13:46:12;;;;;;;21.47;17.00;;;;;;;;;;5060863;28;20189;-82
2022/03/15 13:48:39;;;;;;;22.80;17.43;;;;;;;;;;5072059;28;20192;-81
2022/03/15 13:51:07;;;;;;;22.10;16.53;;;;;;;;;;5085835;28;20239;-81
2022/03/15 13:53:36;;;;;;;18.90;14.97;;;;;;;;;;5067689;28;20264;-80
2022/03/15 13:56:13;;;;;;;21.27;15.90;;;;;;;;;;5081586;28;20481;-82
2022/03/15 13:58:44;;;;;;;20.33;15.67;;;;;;;;;;5044684;28;20191;-80
2022/03/15 14:01:11;;;;;;;21.67;15.20;;;;;;;;;;5070725;28;20735;-79
2022/03/15 14:03:37;;;;;;;24.97;16.83;;;;;;;;;;5065514;28;20216;-81
2022/03/15 14:06:05;;;;;;;22.57;16.70;;;;;;;;;;5087719;28;20188;-81
2022/03/15 14:08:47;;;;;;;20.93;16.13;;;;;;;;;;5087146;28;20543;-81
2022/03/15 14:11:14;;;;;;;22.77;17.40;;;;;;;;;;5090779;28;20220;-80
2022/03/15 14:13:55;;;;;;;22.90;15.83;;;;;;;;;;5061454;28;20715;-78
2022/03/15 14:16:31;;;;;;;20.33;15.43;;;;;;;;;;5080167;28;20208;-81
2022/03/15 14:19:00;;;;;;;19.57;16.60;;;;;;;;;;5063086;28;20657;-78
2022/03/15 14:21:29;;;;;;;22.53;17.10;;;;;;;;;;5068960;28;20223;-77
2022/03/15 14:23:58;;;;;;;18.10;13.63;;;;;;;;;;5071110;28;20266;-77
2022/03/15 14:26:28;;;;;;;18.67;15.07;;;;;;;;;;5072215;28;20180;-77
2022/03/15 14:29:06;;;;;;;23.37;15.90;;;;;;;;;;5074788;28;20177;-79
2022/03/15 14:31:36;;;;;;;24.73;17.30;;;;;;;;;;5073620;28;20224;-80
2022/03/15 14:34:06;;;;;;;22.07;16.93;;;;;;;;;;5071994;28;20573;-81